createdAt,value
2022-12-03T00:01:02.957Z,1.19
2022-12-03T00:03:35.997Z,1.22
2022-12-03T00:06:03.366Z,1.24
2022-12-03T00:08:34.900Z,1.24
2022-12-03T00:11:03.328Z,1.22
2022-12-03T00:13:30.402Z,1.22
2022-12-03T00:15:59.205Z,1.21
2022-12-03T00:18:25.985Z,1.20
2022-12-03T00:20:52.975Z,1.18
2022-12-03T00:23:19.778Z,1.18
2022-12-03T00:25:46.729Z,1.17
2022-12-03T00:28:13.679Z,1.17
2022-12-03T00:30:40.635Z,1.18
2022-12-03T00:33:07.481Z,1.18
2022-12-03T00:35:34.407Z,1.20
2022-12-03T00:38:01.460Z,1.20
2022-12-03T00:40:28.322Z,1.18
2022-12-03T00:42:56.048Z,1.19
2022-12-03T00:45:22.692Z,1.19
2022-12-03T00:47:49.496Z,1.19
2022-12-03T00:50:18.740Z,1.18
2022-12-03T00:52:48.126Z,1.19
2022-12-03T00:55:19.537Z,1.17
2022-12-03T00:57:46.161Z,1.15
2022-12-03T01:00:13.830Z,1.15
2022-12-03T01:02:40.509Z,1.16
2022-12-03T01:05:07.759Z,1.14
2022-12-03T01:07:35.126Z,1.17
2022-12-03T01:10:04.734Z,1.15
2022-12-03T01:12:32.395Z,1.15
2022-12-03T01:14:59.377Z,1.17
2022-12-03T01:17:26.267Z,1.15
2022-12-03T01:19:56.197Z,1.15
2022-12-03T01:22:25.930Z,1.16
2022-12-03T01:24:53.010Z,1.18
2022-12-03T01:27:19.761Z,1.18
2022-12-03T01:29:46.690Z,1.18
2022-12-03T01:32:22.340Z,1.19
2022-12-03T01:34:51.925Z,1.18
2022-12-03T01:37:20.474Z,1.18
2022-12-03T01:39:47.179Z,1.18
2022-12-03T01:42:26.839Z,1.19
2022-12-03T01:44:57.604Z,1.17
2022-12-03T01:47:33.993Z,1.18
2022-12-03T01:50:06.161Z,1.21
2022-12-03T01:52:36.947Z,1.21
2022-12-03T01:55:07.904Z,1.22
2022-12-03T01:57:58.228Z,1.20
2022-12-03T02:00:31.042Z,1.22
2022-12-03T02:03:04.443Z,1.24
2022-12-03T02:05:33.286Z,1.24
2022-12-03T02:08:00.585Z,1.27
2022-12-03T02:10:36.155Z,1.28
2022-12-03T02:13:09.155Z,1.27
2022-12-03T02:15:37.989Z,1.27
2022-12-03T02:18:04.893Z,1.29
2022-12-03T02:20:39.472Z,1.28
2022-12-03T02:23:13.469Z,1.30
2022-12-03T02:25:40.417Z,1.30
2022-12-03T02:28:09.000Z,1.28
2022-12-03T02:30:36.978Z,1.30
2022-12-03T02:33:06.433Z,1.30
2022-12-03T02:35:35.453Z,1.30
2022-12-03T02:38:21.730Z,1.32
2022-12-03T02:40:52.453Z,1.34
2022-12-03T02:43:20.758Z,1.34
2022-12-03T02:45:51.921Z,1.34
2022-12-03T02:48:26.367Z,1.36
2022-12-03T02:50:56.350Z,1.37
2022-12-03T02:53:45.125Z,1.39
2022-12-03T02:56:15.168Z,1.38
2022-12-03T02:58:47.342Z,1.35
2022-12-03T03:01:16.029Z,1.38
2022-12-03T03:03:44.862Z,1.39
2022-12-03T03:06:12.186Z,1.38
2022-12-03T03:08:40.601Z,1.39
2022-12-03T03:11:11.438Z,1.44
2022-12-03T03:13:39.188Z,1.44
2022-12-03T03:16:07.429Z,1.46
2022-12-03T03:18:34.910Z,1.47
2022-12-03T03:21:04.941Z,1.47
2022-12-03T03:23:32.356Z,1.48
2022-12-03T03:26:06.560Z,1.50
2022-12-03T03:28:35.919Z,1.48
2022-12-03T03:31:05.242Z,1.45
2022-12-03T03:33:32.879Z,1.48
2022-12-03T03:36:00.779Z,1.44
2022-12-03T03:38:29.856Z,1.45
2022-12-03T03:40:59.857Z,1.48
2022-12-03T03:43:30.210Z,1.43
2022-12-03T03:45:57.578Z,1.44
2022-12-03T03:48:24.351Z,1.46
2022-12-03T03:50:52.360Z,1.43
2022-12-03T03:53:21.261Z,1.42
2022-12-03T03:55:48.034Z,1.40
2022-12-03T03:58:14.529Z,1.39
2022-12-03T04:00:46.457Z,1.40
2022-12-03T04:03:14.624Z,1.43
2022-12-03T04:05:41.547Z,1.44
2022-12-03T04:08:08.112Z,1.46
2022-12-03T04:10:54.146Z,1.48
2022-12-03T04:13:23.165Z,1.48
2022-12-03T04:15:49.924Z,1.48
2022-12-03T04:18:35.049Z,1.49
2022-12-03T04:21:20.340Z,1.48
2022-12-03T04:23:49.444Z,1.47
2022-12-03T04:26:35.119Z,1.47
2022-12-03T04:29:03.240Z,1.46
2022-12-03T04:31:48.905Z,1.47
2022-12-03T04:34:36.013Z,1.47
2022-12-03T04:37:03.553Z,1.47
2022-12-03T04:39:30.076Z,1.47
2022-12-03T04:41:56.717Z,1.47
2022-12-03T04:44:38.836Z,1.48
2022-12-03T04:47:07.744Z,1.46
2022-12-03T04:49:36.077Z,1.48
2022-12-03T04:52:03.356Z,1.50
2022-12-03T04:54:30.506Z,1.51
2022-12-03T04:56:57.779Z,1.48
2022-12-03T04:59:24.427Z,1.48
2022-12-03T05:01:51.836Z,1.48
2022-12-03T05:04:21.448Z,1.42
2022-12-03T05:06:51.298Z,1.43
2022-12-03T05:09:17.913Z,1.41
2022-12-03T05:11:45.416Z,1.39
2022-12-03T05:14:12.093Z,1.38
2022-12-03T05:16:44.726Z,1.37
2022-12-03T05:19:13.229Z,1.34
2022-12-03T05:21:39.583Z,1.32
2022-12-03T05:24:07.881Z,1.31
2022-12-03T05:26:35.206Z,1.31
2022-12-03T05:29:02.908Z,1.30
2022-12-03T05:31:29.573Z,1.31
2022-12-03T05:33:56.168Z,1.33
2022-12-03T05:36:22.841Z,1.35
2022-12-03T05:38:53.212Z,1.35
2022-12-03T05:41:39.184Z,1.38
2022-12-03T05:44:06.673Z,1.36
2022-12-03T05:46:34.436Z,1.37
2022-12-03T05:49:05.441Z,1.36
2022-12-03T05:51:32.715Z,1.35
2022-12-03T05:54:00.442Z,1.33
2022-12-03T05:56:31.008Z,1.30
2022-12-03T05:58:58.029Z,1.27
2022-12-03T06:01:24.862Z,1.30
2022-12-03T06:03:51.727Z,1.27
2022-12-03T06:06:20.828Z,1.27
2022-12-03T06:08:47.349Z,1.26
2022-12-03T06:11:14.654Z,1.25
2022-12-03T06:13:41.157Z,1.26
2022-12-03T06:16:07.760Z,1.23
2022-12-03T06:18:34.919Z,1.23
2022-12-03T06:21:01.391Z,1.24
2022-12-03T06:23:29.229Z,1.22
2022-12-03T06:25:56.463Z,1.23
2022-12-03T06:28:24.912Z,1.23
2022-12-03T06:30:54.897Z,1.24
2022-12-03T06:33:21.722Z,1.25
2022-12-03T06:35:49.022Z,1.28
2022-12-03T06:38:15.548Z,1.26
2022-12-03T06:40:43.551Z,1.24
2022-12-03T06:43:10.115Z,1.27
2022-12-03T06:45:36.663Z,1.24
2022-12-03T06:48:05.961Z,1.22
2022-12-03T06:50:32.544Z,1.19
2022-12-03T06:52:59.818Z,1.20
2022-12-03T06:55:27.988Z,1.21
2022-12-03T06:57:54.876Z,1.18
2022-12-03T07:00:22.542Z,1.21
2022-12-03T07:02:49.875Z,1.19
2022-12-03T07:05:16.974Z,1.18
2022-12-03T07:07:52.477Z,1.19
2022-12-03T07:10:20.267Z,1.17
2022-12-03T07:12:46.988Z,1.16
2022-12-03T07:15:16.044Z,1.13
2022-12-03T07:17:43.364Z,1.12
2022-12-03T07:20:11.279Z,1.12
2022-12-03T07:22:38.653Z,1.14
2022-12-03T07:25:06.215Z,1.13
2022-12-03T07:27:32.904Z,1.15
2022-12-03T07:29:59.602Z,1.12
2022-12-03T07:32:26.458Z,1.07
2022-12-03T07:34:53.215Z,1.03
2022-12-03T07:37:23.613Z,1.07
2022-12-03T07:39:53.361Z,1.05
2022-12-03T07:42:22.774Z,1.04
2022-12-03T07:44:49.287Z,1.07
2022-12-03T07:47:16.543Z,1.06
2022-12-03T07:49:46.362Z,1.07
2022-12-03T07:52:13.199Z,1.06
2022-12-03T07:54:41.184Z,1.04
2022-12-03T07:57:07.735Z,1.05
2022-12-03T07:59:34.568Z,1.03
2022-12-03T08:02:02.432Z,1.04
2022-12-03T08:04:29.128Z,1.01
2022-12-03T08:06:55.860Z,1.01
2022-12-03T08:09:22.580Z,1.00
2022-12-03T08:11:52.241Z,1.00
2022-12-03T08:14:22.649Z,0.97
2022-12-03T08:16:49.342Z,0.96
2022-12-03T08:19:18.052Z,0.98
2022-12-03T08:21:45.464Z,1.00
2022-12-03T08:24:19.729Z,1.01
2022-12-03T08:26:49.612Z,1.00
2022-12-03T08:29:19.663Z,1.00
2022-12-03T08:31:49.993Z,1.00
2022-12-03T08:34:22.662Z,1.01
2022-12-03T08:37:06.208Z,1.00
2022-12-03T08:39:44.547Z,0.97
2022-12-03T08:42:31.746Z,0.99
2022-12-03T08:45:21.272Z,0.99
2022-12-03T08:47:51.184Z,1.00
2022-12-03T08:50:40.168Z,1.00
2022-12-03T08:53:28.621Z,0.99
2022-12-03T08:55:57.812Z,0.98
2022-12-03T08:58:36.846Z,0.96
2022-12-03T09:01:12.579Z,0.92
2022-12-03T09:03:51.447Z,0.93
2022-12-03T09:06:18.140Z,0.89
2022-12-03T09:08:44.725Z,0.88
2022-12-03T09:11:13.771Z,0.88
2022-12-03T09:13:43.408Z,0.85
2022-12-03T09:16:10.395Z,0.86
2022-12-03T09:18:37.357Z,0.88
2022-12-03T09:21:05.041Z,0.91
2022-12-03T09:23:31.813Z,0.88
2022-12-03T09:25:59.285Z,0.88
2022-12-03T09:28:26.792Z,0.82
2022-12-03T09:30:54.474Z,0.81
2022-12-03T09:33:21.378Z,0.79
2022-12-03T09:35:48.069Z,0.70
2022-12-03T09:38:14.632Z,0.73
2022-12-03T09:40:41.846Z,0.71
2022-12-03T09:43:09.261Z,0.68
2022-12-03T09:45:36.781Z,0.63
2022-12-03T09:48:04.232Z,0.62
2022-12-03T09:53:54.408Z,0.60
2022-12-03T09:56:23.060Z,0.60
2022-12-03T09:58:50.677Z,0.58
2022-12-03T10:01:18.246Z,0.58
2022-12-03T10:03:47.928Z,0.63
2022-12-03T10:06:18.807Z,0.68
2022-12-03T10:08:48.718Z,0.73
2022-12-03T10:11:17.231Z,0.73
2022-12-03T10:13:48.445Z,0.73
2022-12-03T10:16:18.355Z,0.72
2022-12-03T10:18:48.985Z,0.68
2022-12-03T10:21:31.317Z,0.64
2022-12-03T10:24:25.804Z,0.58
2022-12-03T10:26:54.499Z,0.52
2022-12-03T10:29:31.647Z,0.47
2022-12-03T10:32:09.548Z,0.46
2022-12-03T10:34:41.353Z,0.47
2022-12-03T10:37:22.362Z,0.45
2022-12-03T10:40:02.445Z,0.43
2022-12-03T10:42:35.108Z,0.43
2022-12-03T10:45:28.806Z,0.45
2022-12-03T10:48:15.146Z,0.46
2022-12-03T10:51:04.809Z,0.49
2022-12-03T10:53:36.031Z,0.44
2022-12-03T10:56:06.010Z,0.43
2022-12-03T10:58:38.163Z,0.36
2022-12-03T11:01:21.452Z,0.33
2022-12-03T11:03:48.693Z,0.34
2022-12-03T11:06:21.639Z,0.36
2022-12-03T11:08:56.775Z,0.35
2022-12-03T11:11:25.057Z,0.33
2022-12-03T11:13:58.720Z,0.31
2022-12-03T11:16:53.560Z,0.32
2022-12-03T11:19:40.226Z,0.30
2022-12-03T11:22:06.694Z,0.31
2022-12-03T11:24:35.813Z,0.32
2022-12-03T11:27:02.293Z,0.38
2022-12-03T11:29:54.678Z,0.43
2022-12-03T11:33:00.533Z,0.44
2022-12-03T11:35:35.748Z,0.42
2022-12-03T11:38:37.349Z,0.44
2022-12-03T11:41:17.254Z,0.48
2022-12-03T11:44:00.621Z,0.46
2022-12-03T11:46:38.784Z,0.45
2022-12-03T11:49:32.769Z,0.44
2022-12-03T11:52:01.724Z,0.42
2022-12-03T11:54:29.111Z,0.43
2022-12-03T11:56:56.655Z,0.36
2022-12-03T11:59:23.788Z,0.39
2022-12-03T12:01:50.406Z,0.35
2022-12-03T12:04:35.642Z,0.33
2022-12-03T12:07:02.846Z,0.34
2022-12-03T12:09:54.159Z,0.35
2022-12-03T12:12:28.657Z,0.33
2022-12-03T12:14:55.958Z,0.31
2022-12-03T12:17:36.531Z,0.30
2022-12-03T12:20:24.944Z,0.29
2022-12-03T12:22:54.815Z,0.34
2022-12-03T12:25:35.924Z,0.34
2022-12-03T12:28:05.407Z,0.36
2022-12-03T12:30:33.843Z,0.32
2022-12-03T12:33:16.776Z,0.29
2022-12-03T12:35:43.494Z,0.28
2022-12-03T12:38:11.322Z,0.24
2022-12-03T12:40:42.674Z,0.23
2022-12-03T12:43:25.210Z,0.27
2022-12-03T12:45:56.720Z,0.24
2022-12-03T12:48:29.272Z,0.20
2022-12-03T12:51:06.553Z,0.21
2022-12-03T12:53:35.291Z,0.26
2022-12-03T12:56:27.915Z,0.29
2022-12-03T12:58:57.273Z,0.29
2022-12-03T13:01:30.070Z,0.31
2022-12-03T13:03:57.293Z,0.34
2022-12-03T13:06:29.459Z,0.32
2022-12-03T13:08:57.939Z,0.33
2022-12-03T13:11:24.789Z,0.30
2022-12-03T13:13:55.542Z,0.29
2022-12-03T13:16:32.644Z,0.25
2022-12-03T13:19:01.017Z,0.28
2022-12-03T13:21:42.297Z,0.30
2022-12-03T13:24:39.273Z,0.28
2022-12-03T13:27:29.905Z,0.32
2022-12-03T13:30:02.554Z,0.33
2022-12-03T13:32:35.877Z,0.35
2022-12-03T13:35:26.304Z,0.36
2022-12-03T13:37:53.489Z,0.32
2022-12-03T13:40:35.059Z,0.32
2022-12-03T13:43:12.363Z,0.31
2022-12-03T13:45:55.338Z,0.29
2022-12-03T13:48:34.516Z,0.23
2022-12-03T13:51:23.162Z,0.25
2022-12-03T13:53:50.060Z,0.27
2022-12-03T13:56:29.538Z,0.28
2022-12-03T13:58:58.351Z,0.23
2022-12-03T14:01:27.428Z,0.17
2022-12-03T14:03:54.675Z,0.11
2022-12-03T14:06:24.180Z,0.09
2022-12-03T14:08:51.446Z,0.09
2022-12-03T14:11:36.651Z,0.06
2022-12-03T14:14:03.479Z,0.03
2022-12-03T14:16:30.388Z,0.03
2022-12-03T14:18:57.513Z,0.05
2022-12-03T14:21:24.297Z,0.03
2022-12-03T14:23:51.045Z,0.05
2022-12-03T14:26:17.592Z,0.05
2022-12-03T14:28:44.412Z,0.06
2022-12-03T14:31:13.421Z,0.08
2022-12-03T14:33:40.352Z,0.07
2022-12-03T14:36:09.298Z,0.13
2022-12-03T14:38:38.056Z,0.14
2022-12-03T14:41:04.834Z,0.14
2022-12-03T14:43:31.486Z,0.15
2022-12-03T14:45:58.328Z,0.16
2022-12-03T14:48:25.126Z,0.17
2022-12-03T14:50:53.159Z,0.17
2022-12-03T14:53:24.111Z,0.15
2022-12-03T14:55:56.260Z,0.17
2022-12-03T14:58:26.935Z,0.14
2022-12-03T15:00:53.869Z,0.09
2022-12-03T15:03:23.893Z,0.06
2022-12-03T15:05:52.119Z,0.04
2022-12-03T15:08:19.553Z,-0.01
2022-12-03T15:10:46.525Z,0.01
2022-12-03T15:13:13.801Z,-0.01
2022-12-03T15:15:41.009Z,-0.01
2022-12-03T15:18:07.995Z,-0.02
2022-12-03T15:20:38.780Z,-0.05
2022-12-03T15:23:08.886Z,-0.03
2022-12-03T15:25:40.534Z,-0.04
2022-12-03T15:28:07.829Z,-0.01
2022-12-03T15:30:39.719Z,-0.01
2022-12-03T15:33:06.443Z,-0.01
2022-12-03T15:35:33.998Z,-0.01
2022-12-03T15:38:00.989Z,0.00
2022-12-03T15:40:27.843Z,0.01
2022-12-03T15:42:57.090Z,-0.01
2022-12-03T15:45:23.589Z,-0.04
2022-12-03T15:47:50.178Z,-0.09
2022-12-03T15:50:17.634Z,-0.13
2022-12-03T15:52:45.255Z,-0.13
2022-12-03T15:55:27.765Z,-0.13
2022-12-03T15:57:54.761Z,-0.17
2022-12-03T16:00:24.439Z,-0.19
2022-12-03T16:02:53.068Z,-0.20
2022-12-03T16:05:20.483Z,-0.16
2022-12-03T16:07:49.198Z,-0.17
2022-12-03T16:10:18.150Z,-0.14
2022-12-03T16:12:45.732Z,-0.12
2022-12-03T16:15:12.721Z,-0.12
2022-12-03T16:17:39.803Z,-0.12
2022-12-03T16:20:07.603Z,-0.14
2022-12-03T16:22:35.515Z,-0.15
2022-12-03T16:25:07.525Z,-0.16
2022-12-03T16:27:37.976Z,-0.17
2022-12-03T16:30:06.736Z,-0.15
2022-12-03T16:32:33.667Z,-0.14
2022-12-03T16:35:00.173Z,-0.16
2022-12-03T16:37:30.187Z,-0.14
2022-12-03T16:39:57.951Z,-0.15
2022-12-03T16:42:24.747Z,-0.17
2022-12-03T16:44:55.153Z,-0.19
2022-12-03T16:47:22.643Z,-0.17
2022-12-03T16:49:49.897Z,-0.23
2022-12-03T16:52:17.441Z,-0.22
2022-12-03T16:54:44.830Z,-0.24
2022-12-03T16:57:13.664Z,-0.27
2022-12-03T16:59:41.614Z,-0.27
2022-12-03T17:02:09.069Z,-0.25
2022-12-03T17:04:36.387Z,-0.24
2022-12-03T17:07:03.666Z,-0.28
2022-12-03T17:09:33.633Z,-0.31
2022-12-03T17:12:02.075Z,-0.33
2022-12-03T17:14:33.236Z,-0.32
2022-12-03T17:17:00.557Z,-0.32
2022-12-03T17:19:27.242Z,-0.32
2022-12-03T17:21:54.321Z,-0.36
2022-12-03T17:24:21.495Z,-0.40
2022-12-03T17:26:48.063Z,-0.38
2022-12-03T17:29:18.123Z,-0.41
2022-12-03T17:31:47.322Z,-0.39
2022-12-03T17:34:14.652Z,-0.37
2022-12-03T17:36:41.474Z,-0.38
2022-12-03T17:39:08.000Z,-0.36
2022-12-03T17:41:37.856Z,-0.32
2022-12-03T17:44:10.163Z,-0.34
2022-12-03T17:46:38.574Z,-0.33
2022-12-03T17:49:05.550Z,-0.33
2022-12-03T17:51:35.402Z,-0.33
2022-12-03T17:54:02.375Z,-0.35
2022-12-03T17:56:29.342Z,-0.37
2022-12-03T17:58:57.252Z,-0.33
2022-12-03T18:01:24.083Z,-0.33
2022-12-03T18:03:50.671Z,-0.37
2022-12-03T18:06:17.270Z,-0.37
2022-12-03T18:08:43.770Z,-0.36
2022-12-03T18:11:10.312Z,-0.39
2022-12-03T18:13:37.940Z,-0.39
2022-12-03T18:16:09.898Z,-0.38
2022-12-03T18:18:36.796Z,-0.41
2022-12-03T18:21:05.659Z,-0.46
2022-12-03T18:23:33.300Z,-0.46
2022-12-03T18:26:00.472Z,-0.46
2022-12-03T18:28:27.805Z,-0.43
2022-12-03T18:30:54.692Z,-0.42
2022-12-03T18:33:24.727Z,-0.43
2022-12-03T18:35:54.685Z,-0.42
2022-12-03T18:38:22.624Z,-0.40
2022-12-03T18:40:53.718Z,-0.40
2022-12-03T18:43:20.262Z,-0.40
2022-12-03T18:45:49.519Z,-0.40
2022-12-03T18:48:20.036Z,-0.45
2022-12-03T18:50:48.165Z,-0.50
2022-12-03T18:53:17.705Z,-0.52
2022-12-03T18:55:46.700Z,-0.52
2022-12-03T18:58:16.657Z,-0.50
2022-12-03T19:00:43.382Z,-0.51
2022-12-03T19:03:11.049Z,-0.52
2022-12-03T19:05:37.732Z,-0.53
2022-12-03T19:08:12.975Z,-0.54
2022-12-03T19:10:40.038Z,-0.52
2022-12-03T19:13:09.024Z,-0.54
2022-12-03T19:15:41.162Z,-0.52
2022-12-03T19:18:07.997Z,-0.53
2022-12-03T19:20:34.899Z,-0.51
2022-12-03T19:23:03.190Z,-0.52
2022-12-03T19:25:29.968Z,-0.49
2022-12-03T19:27:57.163Z,-0.51
2022-12-03T19:30:24.039Z,-0.55
2022-12-03T19:32:53.283Z,-0.54
2022-12-03T19:35:21.391Z,-0.53
2022-12-03T19:37:51.333Z,-0.56
2022-12-03T19:40:19.444Z,-0.55
2022-12-03T19:42:46.767Z,-0.56
2022-12-03T19:45:14.007Z,-0.52
2022-12-03T19:47:40.655Z,-0.52
2022-12-03T19:50:08.552Z,-0.53
2022-12-03T19:52:38.564Z,-0.53
2022-12-03T19:55:05.722Z,-0.57
2022-12-03T19:57:34.618Z,-0.57
2022-12-03T20:00:01.281Z,-0.59
2022-12-03T20:02:28.362Z,-0.65
2022-12-03T20:04:56.498Z,-0.71
2022-12-03T20:07:23.212Z,-0.74
2022-12-03T20:09:51.359Z,-0.77
2022-12-03T20:12:18.276Z,-0.77
2022-12-03T20:14:45.298Z,-0.78
2022-12-03T20:17:14.987Z,-0.75
2022-12-03T20:19:42.484Z,-0.76
2022-12-03T20:22:09.478Z,-0.75
2022-12-03T20:24:36.162Z,-0.73
2022-12-03T20:27:02.775Z,-0.70
2022-12-03T20:29:29.815Z,-0.72
2022-12-03T20:31:56.516Z,-0.69
2022-12-03T20:34:25.398Z,-0.68
2022-12-03T20:36:52.606Z,-0.70
2022-12-03T20:39:19.225Z,-0.72
2022-12-03T20:41:48.299Z,-0.66
2022-12-03T20:44:14.968Z,-0.67
2022-12-03T20:46:42.417Z,-0.68
2022-12-03T20:49:09.190Z,-0.67
2022-12-03T20:51:36.764Z,-0.70
2022-12-03T20:54:03.671Z,-0.71
2022-12-03T20:56:36.436Z,-0.71
2022-12-03T20:59:05.550Z,-0.71
2022-12-03T21:01:32.911Z,-0.74
2022-12-03T21:03:59.539Z,-0.79
2022-12-03T21:06:28.243Z,-0.81
2022-12-03T21:08:56.691Z,-0.80
2022-12-03T21:11:27.130Z,-0.79
2022-12-03T21:13:54.891Z,-0.80
2022-12-03T21:16:51.874Z,-0.78
2022-12-03T21:19:12.494Z,-0.79
2022-12-03T21:21:39.056Z,-0.83
2022-12-03T21:24:06.245Z,-0.83
2022-12-03T21:26:42.526Z,-0.84
2022-12-03T21:29:09.186Z,-0.82
2022-12-03T21:31:37.368Z,-0.87
2022-12-03T21:34:05.517Z,-0.88
2022-12-03T21:36:33.047Z,-0.88
2022-12-03T21:38:59.836Z,-0.85
2022-12-03T21:41:28.866Z,-0.86
2022-12-03T21:43:55.510Z,-0.86
2022-12-03T21:47:11.641Z,-0.87
2022-12-03T21:49:09.408Z,-0.88
2022-12-03T21:51:36.001Z,-0.86
2022-12-03T21:54:05.470Z,-0.84
2022-12-03T21:56:33.137Z,-0.84
2022-12-03T21:58:59.705Z,-0.84
2022-12-03T22:01:29.104Z,-0.80
2022-12-03T22:03:56.167Z,-0.79
2022-12-03T22:06:22.831Z,-0.74
2022-12-03T22:08:51.651Z,-0.74
2022-12-03T22:11:21.103Z,-0.77
2022-12-03T22:13:51.289Z,-0.81
2022-12-03T22:16:20.606Z,-0.82
2022-12-03T22:18:48.031Z,-0.86
2022-12-03T22:21:17.888Z,-0.85
2022-12-03T22:23:45.100Z,-0.87
2022-12-03T22:26:18.453Z,-0.85
2022-12-03T22:28:46.881Z,-0.83
2022-12-03T22:31:14.921Z,-0.82
2022-12-03T22:33:42.202Z,-0.79
2022-12-03T22:36:17.955Z,-0.79
2022-12-03T22:38:47.425Z,-0.75
2022-12-03T22:41:17.541Z,-0.75
2022-12-03T22:43:45.141Z,-0.69
2022-12-03T22:46:13.171Z,-0.63
2022-12-03T22:48:42.483Z,-0.71
2022-12-03T22:51:21.269Z,-0.69
2022-12-03T22:53:53.640Z,-0.67
2022-12-03T22:56:20.541Z,-0.67
2022-12-03T22:58:47.600Z,-0.67
2022-12-03T23:01:23.166Z,-0.71
2022-12-03T23:03:50.128Z,-0.72
2022-12-03T23:06:17.011Z,-0.72
2022-12-03T23:08:43.902Z,-0.72
2022-12-03T23:11:14.038Z,-0.79
2022-12-03T23:13:40.635Z,-0.75
2022-12-03T23:16:08.868Z,-0.73
2022-12-03T23:18:37.104Z,-0.77
2022-12-03T23:21:04.525Z,-0.72
2022-12-03T23:23:31.364Z,-0.70
2022-12-03T23:26:07.267Z,-0.66
2022-12-03T23:28:37.588Z,-0.62
2022-12-03T23:31:05.361Z,-0.60
2022-12-03T23:33:38.160Z,-0.58
2022-12-03T23:36:09.081Z,-0.55
2022-12-03T23:38:35.968Z,-0.58
2022-12-03T23:41:07.949Z,-0.60
2022-12-03T23:43:34.616Z,-0.59
2022-12-03T23:46:10.310Z,-0.63
2022-12-03T23:48:37.703Z,-0.63
2022-12-03T23:51:10.443Z,-0.63
2022-12-03T23:53:39.138Z,-0.62
2022-12-03T23:56:15.515Z,-0.62
2022-12-03T23:58:42.286Z,-0.61
